Time;durP1;ratioP1;P1;durP2;ratioP2;P2;SDS_P1;SDS_P2;PMS_P1;PMS_P2;Temp;Humidity;BMP_temperature;BMP_pressure;BME280_temperature;BME280_humidity;BME280_pressure;Samples;Min_cycle;Max_cycle;Signal;HPM_P1;HPM_P2
2022/11/21 00:01:20;;;;;;;18.27;12.57;;;8.50;99.90;;;;;;5073770;28;20950;-74
2022/11/21 00:03:48;;;;;;;17.33;11.73;;;8.50;99.90;;;;;;5055995;28;20410;-74
2022/11/21 00:06:15;;;;;;;19.20;12.00;;;8.50;99.90;;;;;;5056030;28;20910;-74
2022/11/21 00:08:41;;;;;;;18.33;11.87;;;8.50;99.90;;;;;;5055740;28;20954;-74
2022/11/21 00:11:08;;;;;;;16.83;10.80;;;8.50;99.90;;;;;;5055991;28;20432;-74
2022/11/21 00:13:34;;;;;;;17.70;11.30;;;8.50;99.90;;;;;;5022750;28;20398;-74
2022/11/21 00:16:08;;;;;;;16.93;11.23;;;8.50;99.90;;;;;;5039215;28;20952;-74
2022/11/21 00:18:36;;;;;;;19.80;11.60;;;8.50;99.90;;;;;;5073677;28;20408;-74
2022/11/21 00:21:09;;;;;;;15.20;10.37;;;8.50;99.90;;;;;;5038905;28;20432;-74
2022/11/21 00:23:35;;;;;;;14.60;10.70;;;8.50;99.90;;;;;;5039232;28;20918;-74
2022/11/21 00:26:06;;;;;;;16.50;11.50;;;8.50;99.90;;;;;;5039148;28;20429;-74
2022/11/21 00:28:33;;;;;;;17.03;10.90;;;8.50;99.90;;;;;;5038097;28;20417;-74
2022/11/21 00:30:59;;;;;;;15.27;11.00;;;8.50;99.90;;;;;;5055318;28;20468;-74
2022/11/21 00:33:25;;;;;;;14.83;11.37;;;8.50;99.90;;;;;;5022595;28;20463;-74
2022/11/21 00:35:53;;;;;;;15.10;10.90;;;8.50;99.90;;;;;;5055469;28;20480;-74
2022/11/21 00:38:19;;;;;;;14.93;9.87;;;8.50;99.90;;;;;;5073201;28;20401;-74
2022/11/21 00:40:45;;;;;;;14.87;10.73;;;8.50;99.90;;;;;;5038894;28;20972;-74
2022/11/21 00:43:13;;;;;;;17.70;10.47;;;8.50;99.90;;;;;;5038745;28;20406;-74
2022/11/21 00:45:42;;;;;;;15.37;11.00;;;8.50;99.90;;;;;;5039032;28;20460;-74
2022/11/21 00:48:08;;;;;;;15.30;10.83;;;8.50;99.90;;;;;;5073065;28;20433;-74
2022/11/21 00:50:34;;;;;;;15.40;9.83;;;8.50;99.90;;;;;;5054850;28;20457;-74
2022/11/21 00:53:00;;;;;;;15.93;10.83;;;8.50;99.90;;;;;;5055150;28;20510;-74
2022/11/21 00:55:31;;;;;;;13.80;10.07;;;8.50;99.90;;;;;;5022325;28;20796;-74
2022/11/21 00:57:59;;;;;;;14.80;10.70;;;8.50;99.90;;;;;;5055111;28;20390;-74
2022/11/21 01:00:25;;;;;;;15.53;10.70;;;8.50;99.90;;;;;;5022190;28;20465;-74
2022/11/21 01:02:53;;;;;;;13.53;9.70;;;8.50;99.90;;;;;;5073289;28;20475;-74
2022/11/21 01:05:19;;;;;;;16.80;10.90;;;8.50;99.90;;;;;;5055028;28;20515;-74
2022/11/21 01:07:48;;;;;;;14.07;11.10;;;8.50;99.90;;;;;;5072983;28;20495;-74
2022/11/21 01:10:16;;;;;;;14.97;10.77;;;8.50;99.90;;;;;;5038309;28;20528;-74
2022/11/21 01:12:44;;;;;;;16.03;10.60;;;8.50;99.90;;;;;;5055207;28;20763;-74
2022/11/21 01:15:11;;;;;;;15.80;10.23;;;8.50;99.90;;;;;;5022087;28;20491;-74
2022/11/21 01:17:41;;;;;;;15.80;9.80;;;8.50;99.90;;;;;;5039415;28;20815;-74
2022/11/21 01:20:10;;;;;;;15.47;9.73;;;8.50;99.90;;;;;;5054841;28;20469;-74
2022/11/21 01:22:36;;;;;;;14.83;10.30;;;8.50;99.90;;;;;;5038580;28;20759;-74
2022/11/21 01:25:02;;;;;;;16.53;11.23;;;8.50;99.90;;;;;;5055029;28;20480;-74
2022/11/21 01:27:28;;;;;;;17.23;11.20;;;8.50;99.90;;;;;;5054927;28;20394;-74
2022/11/21 01:29:54;;;;;;;14.60;10.90;;;8.50;99.90;;;;;;5054764;28;20464;-74
2022/11/21 01:32:20;;;;;;;12.70;9.67;;;8.50;99.90;;;;;;5038400;28;20769;-74
2022/11/21 01:34:46;;;;;;;13.93;10.50;;;8.40;99.90;;;;;;5054606;28;20398;-74
2022/11/21 01:37:12;;;;;;;14.80;10.87;;;8.40;99.90;;;;;;5072712;28;20401;-74
2022/11/21 01:39:38;;;;;;;15.43;11.13;;;8.50;99.90;;;;;;5037817;28;20456;-74
2022/11/21 01:42:04;;;;;;;16.80;10.27;;;8.40;99.90;;;;;;5025389;28;20432;-74
2022/11/21 01:44:50;;;;;;;15.00;9.30;;;8.40;99.90;;;;;;5058774;28;20404;-74
2022/11/21 01:47:16;;;;;;;14.70;10.20;;;8.50;99.90;;;;;;5076378;28;20406;-74
2022/11/21 01:49:44;;;;;;;16.70;11.07;;;8.50;99.90;;;;;;5025477;28;20469;-74
2022/11/21 01:52:23;;;;;;;16.10;11.33;;;8.50;99.90;;;;;;5041863;28;20539;-74
2022/11/21 01:55:00;;;;;;;15.63;10.73;;;8.40;99.90;;;;;;5059060;28;20414;-74
2022/11/21 01:57:30;;;;;;;17.20;11.07;;;8.40;99.90;;;;;;5058533;28;20423;-74
2022/11/21 02:00:01;;;;;;;17.83;10.90;;;8.40;99.90;;;;;;5058389;28;20454;-74
2022/11/21 02:02:35;;;;;;;16.13;11.30;;;8.50;99.90;;;;;;5075985;28;20433;-74
2022/11/21 02:05:03;;;;;;;18.90;11.30;;;8.40;99.90;;;;;;5058213;28;20496;-74
2022/11/21 02:07:34;;;;;;;19.20;11.50;;;8.40;99.90;;;;;;5058225;28;20488;-74
2022/11/21 02:12:55;;;;;;;18.27;11.67;;;8.50;99.90;;;;;;4946149;29;20481;-76
2022/11/21 02:15:23;;;;;;;19.80;11.90;;;8.50;99.90;;;;;;4972908;28;20457;-76
2022/11/21 02:17:52;;;;;;;19.37;11.67;;;8.50;99.90;;;;;;4975195;28;20823;-75
2022/11/21 02:20:21;;;;;;;16.17;10.77;;;8.50;99.90;;;;;;4969736;28;20862;-76
2022/11/21 02:22:59;;;;;;;15.13;10.70;;;8.40;99.90;;;;;;4978306;28;20459;-76
2022/11/21 02:25:33;;;;;;;19.47;12.30;;;8.50;99.90;;;;;;4962302;28;20444;-76
2022/11/21 02:28:14;;;;;;;21.30;11.70;;;8.50;99.90;;;;;;4978144;28;20775;-75
2022/11/21 02:30:41;;;;;;;16.70;11.40;;;8.40;99.90;;;;;;4977991;28;20464;-76
2022/11/21 02:33:08;;;;;;;17.50;12.50;;;8.40;99.90;;;;;;4978314;28;20836;-76
2022/11/21 02:35:35;;;;;;;19.80;12.20;;;8.40;99.90;;;;;;4978172;28;20823;-76
2022/11/21 02:38:17;;;;;;;22.53;11.50;;;8.40;99.90;;;;;;4962139;28;20430;-76
2022/11/21 02:40:54;;;;;;;18.83;11.80;;;8.40;99.90;;;;;;4976982;28;20468;-76
2022/11/21 02:43:32;;;;;;;18.60;11.60;;;8.40;99.90;;;;;;4995603;28;20829;-76
2022/11/21 02:46:00;;;;;;;19.53;11.93;;;8.40;99.90;;;;;;4962329;28;20440;-76
2022/11/21 02:48:26;;;;;;;21.40;12.13;;;8.40;99.90;;;;;;4977924;28;20563;-76
2022/11/21 02:50:52;;;;;;;19.90;12.27;;;8.40;99.90;;;;;;4994902;28;20564;-76
2022/11/21 02:53:19;;;;;;;18.50;11.50;;;8.40;99.90;;;;;;4994282;28;20488;-75
2022/11/21 02:55:45;;;;;;;16.80;11.30;;;8.40;99.90;;;;;;4962043;28;20418;-75
2022/11/21 02:58:11;;;;;;;18.93;11.10;;;8.40;99.90;;;;;;4995041;28;20410;-76
2022/11/21 03:00:40;;;;;;;19.80;12.20;;;8.40;99.90;;;;;;4977606;28;20432;-76
2022/11/21 03:03:06;;;;;;;20.07;12.60;;;8.40;99.90;;;;;;4961856;28;20480;-75
2022/11/21 03:05:35;;;;;;;21.43;12.03;;;8.50;99.90;;;;;;4977453;28;20427;-75
2022/11/21 03:08:04;;;;;;;21.63;13.57;;;8.50;99.90;;;;;;4995313;28;20405;-75
2022/11/21 03:10:30;;;;;;;23.17;13.43;;;8.50;99.90;;;;;;4980034;28;20522;-75
2022/11/21 03:13:01;;;;;;;17.87;12.20;;;8.50;99.90;;;;;;5012701;28;20553;-75
2022/11/21 03:15:32;;;;;;;21.20;12.40;;;8.50;99.90;;;;;;5012679;28;20407;-76
2022/11/21 03:18:01;;;;;;;18.17;11.90;;;8.40;99.90;;;;;;4996646;28;20515;-75
2022/11/21 03:20:31;;;;;;;18.90;11.77;;;8.40;99.90;;;;;;5013309;28;20534;-75
2022/11/21 03:23:01;;;;;;;23.87;13.07;;;8.40;99.90;;;;;;5013291;28;20408;-75
2022/11/21 03:25:27;;;;;;;22.67;12.00;;;8.40;99.90;;;;;;4980480;28;20436;-76
2022/11/21 03:27:53;;;;;;;19.43;11.47;;;8.40;99.90;;;;;;5013847;28;20458;-75
2022/11/21 03:30:21;;;;;;;21.57;13.47;;;8.40;99.90;;;;;;5011355;28;20483;-75
2022/11/21 03:32:47;;;;;;;20.17;12.47;;;8.40;99.90;;;;;;5011252;28;20457;-75
2022/11/21 03:35:13;;;;;;;22.80;13.27;;;8.40;99.90;;;;;;5012399;28;20892;-76
2022/11/21 03:37:42;;;;;;;21.23;12.03;;;8.40;99.90;;;;;;5014012;28;20404;-75
2022/11/21 03:40:11;;;;;;;19.13;12.37;;;8.40;99.90;;;;;;5010383;28;20500;-75
2022/11/21 03:42:41;;;;;;;23.67;12.50;;;8.40;99.90;;;;;;4993054;28;20786;-76
2022/11/21 03:45:08;;;;;;;21.30;12.93;;;8.40;99.90;;;;;;4993358;28;20432;-75
2022/11/21 03:47:39;;;;;;;19.93;13.00;;;8.40;99.90;;;;;;4994433;28;20929;-75
2022/11/21 03:50:05;;;;;;;22.50;13.50;;;8.40;99.90;;;;;;4992949;28;20479;-75
2022/11/21 03:52:32;;;;;;;22.47;13.57;;;8.50;99.90;;;;;;4992029;28;20440;-76
2022/11/21 03:55:00;;;;;;;22.40;13.30;;;8.40;99.90;;;;;;4977076;28;20460;-75
2022/11/21 03:57:33;;;;;;;21.27;12.80;;;8.40;99.90;;;;;;4976783;28;20394;-75
2022/11/21 04:00:01;;;;;;;22.17;12.67;;;8.40;99.90;;;;;;4992689;28;20453;-75
2022/11/21 04:02:30;;;;;;;23.73;14.17;;;8.40;99.90;;;;;;4960942;28;20426;-75
2022/11/21 04:04:56;;;;;;;21.07;12.47;;;8.40;99.90;;;;;;5008911;28;20762;-75
2022/11/21 04:07:30;;;;;;;22.40;11.77;;;8.50;99.90;;;;;;4993748;28;20209;-75
2022/11/21 04:09:56;;;;;;;21.87;12.50;;;8.40;99.90;;;;;;4995413;28;20475;-75
2022/11/21 04:12:22;;;;;;;20.80;12.57;;;8.40;99.90;;;;;;5008817;28;20945;-75
2022/11/21 04:14:51;;;;;;;23.80;13.57;;;8.40;99.90;;;;;;4976983;28;20432;-75
2022/11/21 04:17:17;;;;;;;20.60;12.17;;;8.40;99.90;;;;;;4993878;28;20403;-75
2022/11/21 04:19:45;;;;;;;23.33;12.20;;;8.40;99.90;;;;;;4993544;28;20300;-75
2022/11/21 04:22:13;;;;;;;19.93;11.87;;;8.40;99.90;;;;;;4993644;28;20535;-76
2022/11/21 04:24:44;;;;;;;25.13;12.97;;;8.40;99.90;;;;;;4976797;28;20575;-76
2022/11/21 04:27:10;;;;;;;24.00;13.60;;;8.40;99.90;;;;;;4992363;28;20424;-75
2022/11/21 04:29:36;;;;;;;20.60;11.70;;;8.40;99.90;;;;;;4976214;28;20480;-75
2022/11/21 04:32:04;;;;;;;22.47;14.00;;;8.40;99.90;;;;;;4976238;28;20604;-76
2022/11/21 04:34:30;;;;;;;20.80;12.80;;;8.40;99.90;;;;;;4993359;28;20471;-76
2022/11/21 04:36:56;;;;;;;22.50;12.43;;;8.40;99.90;;;;;;4992562;28;20421;-76
2022/11/21 04:39:22;;;;;;;24.37;12.60;;;8.40;99.90;;;;;;4992351;28;20514;-75
2022/11/21 04:41:48;;;;;;;25.33;13.53;;;8.40;99.90;;;;;;4978901;28;20224;-75
2022/11/21 04:44:14;;;;;;;23.30;12.40;;;8.40;99.90;;;;;;4959494;28;20433;-75
2022/11/21 04:46:40;;;;;;;19.67;11.23;;;8.40;99.90;;;;;;4959536;28;20452;-75
2022/11/21 04:49:06;;;;;;;20.90;13.33;;;8.40;99.90;;;;;;4975680;28;20466;-75
2022/11/21 04:51:32;;;;;;;23.40;13.20;;;8.40;99.90;;;;;;4944089;28;20426;-75
2022/11/21 04:53:58;;;;;;;20.80;11.83;;;8.40;99.90;;;;;;4976112;28;21001;-75
2022/11/21 04:56:26;;;;;;;19.90;11.07;;;8.40;99.90;;;;;;4993436;28;20425;-75
2022/11/21 04:58:53;;;;;;;22.17;11.97;;;8.40;99.90;;;;;;4959985;28;20813;-76
2022/11/21 05:01:21;;;;;;;22.77;13.47;;;8.40;99.90;;;;;;4992812;28;20920;-76
2022/11/21 05:03:54;;;;;;;21.07;12.10;;;8.40;99.90;;;;;;4975844;28;20401;-76
2022/11/21 05:06:19;;;;;;;26.47;13.00;;;8.40;99.90;;;;;;4959801;28;20568;-76
2022/11/21 05:08:48;;;;;;;23.27;11.80;;;8.40;99.90;;;;;;4993242;28;20401;-76
2022/11/21 05:13:58;;;;;;;21.83;12.40;;;8.40;99.90;;;;;;4994839;28;20422;-76
2022/11/21 05:16:24;;;;;;;24.40;13.00;;;8.40;99.90;;;;;;4949135;28;20441;-76
2022/11/21 05:18:52;;;;;;;21.13;12.00;;;8.40;99.90;;;;;;4990325;28;20428;-75
2022/11/21 05:21:21;;;;;;;23.93;12.50;;;8.40;99.90;;;;;;4979460;28;20429;-75
2022/11/21 05:23:51;;;;;;;27.50;13.80;;;8.40;99.90;;;;;;4963984;28;20425;-75
2022/11/21 05:26:18;;;;;;;25.83;13.10;;;8.40;99.90;;;;;;4996924;28;20404;-75
2022/11/21 05:28:47;;;;;;;23.80;13.23;;;8.40;99.90;;;;;;4979720;28;20502;-73
2022/11/21 05:31:13;;;;;;;26.27;12.80;;;8.40;99.90;;;;;;4996462;28;21069;-73
2022/11/21 05:33:40;;;;;;;24.57;13.60;;;8.40;99.90;;;;;;4996590;28;20397;-72
2022/11/21 05:36:10;;;;;;;20.63;13.00;;;8.40;99.90;;;;;;4979188;28;20449;-74
2022/11/21 05:38:36;;;;;;;31.67;13.90;;;8.40;99.90;;;;;;4996887;28;20397;-75
2022/11/21 05:41:02;;;;;;;25.53;13.17;;;8.40;99.90;;;;;;4967762;28;20831;-75
2022/11/21 05:43:46;;;;;;;27.70;13.67;;;8.40;99.90;;;;;;4976138;28;20409;-74
2022/11/21 05:46:18;;;;;;;24.97;13.70;;;8.40;99.90;;;;;;4976124;28;20449;-74
2022/11/21 05:48:46;;;;;;;23.00;13.30;;;8.40;99.90;;;;;;4976124;28;20443;-74
2022/11/21 05:51:12;;;;;;;26.40;14.90;;;8.40;99.90;;;;;;4976859;28;20469;-75
2022/11/21 05:53:40;;;;;;;31.80;14.50;;;8.40;99.90;;;;;;4960088;28;20426;-75
2022/11/21 05:56:12;;;;;;;26.90;12.60;;;8.40;99.90;;;;;;4976128;28;20461;-75
2022/11/21 05:58:38;;;;;;;22.53;12.53;;;8.40;99.90;;;;;;4976099;28;20529;-74
2022/11/21 06:01:10;;;;;;;25.23;12.80;;;8.40;99.90;;;;;;4960034;28;20471;-74
2022/11/21 06:03:41;;;;;;;22.43;11.90;;;8.40;99.90;;;;;;4959835;28;20986;-75
2022/11/21 06:06:12;;;;;;;24.10;12.87;;;8.40;99.90;;;;;;4976875;28;20844;-75
2022/11/21 06:08:43;;;;;;;21.97;13.07;;;8.40;99.90;;;;;;4975916;28;20847;-74
2022/11/21 06:11:12;;;;;;;27.50;14.10;;;8.40;99.90;;;;;;4969056;28;21015;-74
2022/11/21 06:13:38;;;;;;;25.47;15.07;;;8.40;99.90;;;;;;4995281;28;20795;-75
2022/11/21 06:16:13;;;;;;;22.53;13.27;;;8.30;99.90;;;;;;5011452;28;20914;-74
2022/11/21 06:18:43;;;;;;;21.53;12.40;;;8.40;99.90;;;;;;4996188;28;20410;-75
2022/11/21 06:21:19;;;;;;;28.77;13.00;;;8.40;99.90;;;;;;4994909;28;20527;-75
2022/11/21 06:23:48;;;;;;;22.90;13.17;;;8.30;99.90;;;;;;4978725;28;20441;-74
2022/11/21 06:26:17;;;;;;;24.80;13.50;;;8.30;99.90;;;;;;4978905;28;20409;-74
2022/11/21 06:28:44;;;;;;;26.00;13.63;;;8.30;99.90;;;;;;4995952;28;20492;-75
2022/11/21 06:31:26;;;;;;;28.27;13.40;;;8.30;99.90;;;;;;5010442;28;20996;-75
2022/11/21 06:33:54;;;;;;;24.47;13.27;;;8.30;99.90;;;;;;5010492;28;20412;-75
2022/11/21 06:36:22;;;;;;;23.23;12.80;;;8.40;99.90;;;;;;5010786;28;20402;-74
2022/11/21 06:38:50;;;;;;;26.40;13.83;;;8.30;99.90;;;;;;4997032;28;20397;-75
2022/11/21 06:41:21;;;;;;;21.73;12.27;;;8.30;99.90;;;;;;5015048;28;20475;-75
2022/11/21 06:43:47;;;;;;;24.70;13.67;;;8.40;99.90;;;;;;5013978;28;20839;-74
2022/11/21 06:46:15;;;;;;;23.97;12.77;;;8.40;99.90;;;;;;4997612;28;20597;-72
2022/11/21 06:48:42;;;;;;;25.70;12.77;;;8.40;99.90;;;;;;5013918;28;20440;-74
2022/11/21 06:51:16;;;;;;;24.67;13.63;;;8.40;99.90;;;;;;5014427;28;20934;-74
2022/11/21 06:53:42;;;;;;;30.00;14.03;;;8.40;99.90;;;;;;5014709;28;20404;-74
2022/11/21 06:56:09;;;;;;;20.80;12.50;;;8.40;99.90;;;;;;5030034;28;20491;-74
2022/11/21 06:58:39;;;;;;;22.20;13.23;;;8.40;99.90;;;;;;5014552;28;20448;-74
2022/11/21 07:01:09;;;;;;;22.70;11.57;;;8.30;99.90;;;;;;4997241;28;20455;-75
2022/11/21 07:03:35;;;;;;;23.17;12.80;;;8.30;99.90;;;;;;4997456;28;20420;-76
2022/11/21 07:06:02;;;;;;;24.00;13.27;;;8.30;99.90;;;;;;4997416;28;20457;-74
2022/11/21 07:08:34;;;;;;;22.50;11.53;;;8.40;99.90;;;;;;4997291;28;20514;-74
2022/11/21 07:11:01;;;;;;;25.90;12.90;;;8.30;99.90;;;;;;5011977;28;20480;-74
2022/11/21 07:13:27;;;;;;;21.93;13.17;;;8.30;99.90;;;;;;4996756;28;20529;-74
2022/11/21 07:16:02;;;;;;;21.20;12.30;;;8.40;99.90;;;;;;5014688;28;20392;-74
2022/11/21 07:18:28;;;;;;;25.70;13.73;;;8.40;99.90;;;;;;4993780;28;20788;-75
2022/11/21 07:21:04;;;;;;;25.13;13.37;;;8.40;99.90;;;;;;4992921;28;20490;-75
2022/11/21 07:23:34;;;;;;;22.80;11.93;;;8.40;99.90;;;;;;5009332;28;20404;-74
2022/11/21 07:26:01;;;;;;;20.57;11.30;;;8.30;99.90;;;;;;4994745;28;20405;-74
2022/11/21 07:28:33;;;;;;;23.00;12.97;;;8.30;99.90;;;;;;4977455;28;20422;-74
2022/11/21 07:31:02;;;;;;;19.27;12.30;;;8.30;99.90;;;;;;4992912;28;20587;-74
2022/11/21 07:33:30;;;;;;;24.97;12.20;;;8.30;99.90;;;;;;4977806;28;20448;-75
2022/11/21 07:35:57;;;;;;;22.73;12.73;;;8.30;99.90;;;;;;5009441;28;20837;-74
2022/11/21 07:38:26;;;;;;;25.73;13.47;;;8.30;99.90;;;;;;5009278;28;20484;-74
2022/11/21 07:40:52;;;;;;;28.63;14.20;;;8.30;99.90;;;;;;4994449;28;20873;-74
2022/11/21 07:43:21;;;;;;;30.43;13.70;;;8.30;99.90;;;;;;4976914;28;20479;-74
2022/11/21 07:45:47;;;;;;;24.40;13.10;;;8.30;99.90;;;;;;4960734;28;20440;-75
2022/11/21 07:48:13;;;;;;;26.67;13.77;;;8.30;99.90;;;;;;4994307;28;20415;-74
2022/11/21 07:50:39;;;;;;;23.70;12.30;;;8.30;99.90;;;;;;4992818;28;20477;-74
2022/11/21 07:53:12;;;;;;;24.93;12.90;;;8.30;99.90;;;;;;4993158;28;20427;-74
2022/11/21 07:55:38;;;;;;;31.03;13.63;;;8.30;99.90;;;;;;4993284;28;20965;-74
2022/11/21 07:58:07;;;;;;;23.33;13.17;;;8.30;99.90;;;;;;4960786;28;20792;-73
2022/11/21 08:00:36;;;;;;;20.83;12.37;;;8.30;99.90;;;;;;5008787;28;20440;-74
2022/11/21 08:03:08;;;;;;;25.53;12.20;;;8.30;99.90;;;;;;5007201;28;21303;-74
2022/11/21 08:05:38;;;;;;;21.83;12.60;;;8.30;99.90;;;;;;4995425;28;20419;-73
2022/11/21 08:08:05;;;;;;;24.33;12.80;;;8.30;99.90;;;;;;4979746;28;20506;-74
2022/11/21 08:10:32;;;;;;;26.37;12.90;;;8.30;99.90;;;;;;4978354;28;20475;-74
2022/11/21 08:13:00;;;;;;;22.73;12.90;;;8.30;99.90;;;;;;5013095;28;20796;-74
2022/11/21 08:15:27;;;;;;;25.10;12.60;;;8.30;99.90;;;;;;5012718;28;20905;-75
2022/11/21 08:18:05;;;;;;;26.93;13.20;;;8.40;99.90;;;;;;4979624;28;20819;-74
2022/11/21 08:20:33;;;;;;;25.40;13.30;;;8.40;99.90;;;;;;4994833;28;20459;-75
2022/11/21 08:22:59;;;;;;;20.27;11.83;;;8.40;99.90;;;;;;5011908;28;20457;-74
2022/11/21 08:25:25;;;;;;;22.77;12.73;;;8.30;99.90;;;;;;5013556;28;20504;-75
2022/11/21 08:27:56;;;;;;;26.63;12.50;;;8.30;99.90;;;;;;5012676;28;20409;-74
2022/11/21 08:30:22;;;;;;;28.50;14.07;;;8.40;99.90;;;;;;5012614;28;20463;-74
2022/11/21 08:32:48;;;;;;;21.43;13.07;;;8.30;99.90;;;;;;5013154;28;20399;-74
2022/11/21 08:35:14;;;;;;;21.47;11.63;;;8.30;99.90;;;;;;5010428;28;20419;-74
2022/11/21 08:37:42;;;;;;;20.43;12.53;;;8.40;99.90;;;;;;4994957;28;20971;-75
2022/11/21 08:40:09;;;;;;;21.57;11.80;;;8.40;99.90;;;;;;5012289;28;20440;-74
2022/11/21 08:42:37;;;;;;;17.97;11.00;;;8.40;99.90;;;;;;5012966;28;20447;-73
2022/11/21 08:45:04;;;;;;;20.70;11.43;;;8.40;99.90;;;;;;4995497;28;20447;-74
2022/11/21 08:47:35;;;;;;;23.73;11.47;;;8.40;99.90;;;;;;4995317;28;20435;-74
2022/11/21 08:50:04;;;;;;;23.37;12.67;;;8.40;99.90;;;;;;4978243;28;20473;-75
2022/11/21 08:52:30;;;;;;;24.90;13.57;;;8.40;99.90;;;;;;4995105;28;20756;-75
2022/11/21 08:54:57;;;;;;;20.73;11.03;;;8.40;99.90;;;;;;4994815;28;20432;-75
2022/11/21 08:57:25;;;;;;;20.27;12.63;;;8.40;99.90;;;;;;5012081;28;20452;-75
2022/11/21 08:59:53;;;;;;;20.80;12.00;;;8.50;99.90;;;;;;4978596;28;20494;-75
2022/11/21 09:02:19;;;;;;;19.00;10.97;;;8.40;99.90;;;;;;4994727;28;20895;-74
2022/11/21 09:04:45;;;;;;;19.80;12.00;;;8.40;99.90;;;;;;5011919;28;20464;-74
2022/11/21 09:07:11;;;;;;;20.90;11.50;;;8.40;99.90;;;;;;4994119;28;20436;-75
2022/11/21 09:09:37;;;;;;;21.17;12.50;;;8.40;99.90;;;;;;5011663;28;20471;-74
2022/11/21 09:12:03;;;;;;;17.80;12.17;;;8.40;99.90;;;;;;4972164;28;20453;-74
2022/11/21 09:20:08;;;;;;;18.43;10.77;;;8.40;99.90;;;;;;4974744;28;20466;-74
2022/11/21 09:22:37;;;;;;;16.10;10.13;;;8.40;99.90;;;;;;4984558;28;20483;-74
2022/11/21 09:25:03;;;;;;;16.20;11.03;;;8.40;99.90;;;;;;5010069;28;20400;-74
2022/11/21 09:27:32;;;;;;;18.50;10.70;;;8.40;99.90;;;;;;4994332;28;20500;-74
2022/11/21 09:30:00;;;;;;;18.87;10.27;;;8.40;99.90;;;;;;4993698;28;20479;-74
2022/11/21 09:32:26;;;;;;;12.90;8.50;;;8.40;99.90;;;;;;4985333;28;20534;-74
2022/11/21 09:34:52;;;;;;;16.30;10.03;;;8.50;99.90;;;;;;4991942;28;20898;-74
2022/11/21 09:37:18;;;;;;;14.70;9.00;;;8.50;99.90;;;;;;4991543;28;20416;-74
2022/11/21 09:39:46;;;;;;;12.00;8.23;;;8.50;99.90;;;;;;4986571;28;20831;-74
2022/11/21 09:42:15;;;;;;;13.53;9.73;;;8.50;99.90;;;;;;4991790;28;20448;-74
2022/11/21 09:44:53;;;;;;;17.23;10.27;;;8.50;99.90;;;;;;4939464;28;20481;-74
2022/11/21 09:47:25;;;;;;;13.80;8.60;;;8.50;99.90;;;;;;4955337;28;20413;-74
2022/11/21 09:50:01;;;;;;;13.50;8.57;;;8.50;99.90;;;;;;4955242;28;20496;-74
2022/11/21 09:52:51;;;;;;;14.07;8.70;;;8.60;99.90;;;;;;4989859;28;20436;-74
2022/11/21 09:55:25;;;;;;;14.67;7.73;;;8.50;99.90;;;;;;4991875;28;20482;-74
2022/11/21 09:57:54;;;;;;;12.50;7.77;;;8.50;99.90;;;;;;5004533;28;20484;-74
2022/11/21 10:00:26;;;;;;;12.30;8.27;;;8.50;99.90;;;;;;4993854;28;20456;-74
2022/11/21 10:02:55;;;;;;;12.93;8.63;;;8.50;99.90;;;;;;5012518;28;20444;-74
2022/11/21 10:05:35;;;;;;;11.83;7.97;;;8.50;99.90;;;;;;4978111;28;20523;-74
2022/11/21 10:08:12;;;;;;;13.40;8.23;;;8.60;99.90;;;;;;4977968;28;20405;-74
2022/11/21 10:10:49;;;;;;;9.80;7.03;;;8.60;99.90;;;;;;4973475;28;20475;-74
2022/11/21 10:13:43;;;;;;;10.33;6.90;;;8.60;99.90;;;;;;4978188;28;20420;-74
2022/11/21 10:16:17;;;;;;;9.50;6.67;;;8.60;99.90;;;;;;5000208;28;20460;-74
2022/11/21 10:19:02;;;;;;;12.90;7.17;;;8.60;99.90;;;;;;4996977;28;20448;-73
2022/11/21 10:21:39;;;;;;;9.77;6.23;;;8.60;99.90;;;;;;4981088;28;20408;-74
2022/11/21 10:24:29;;;;;;;14.20;8.10;;;8.60;99.90;;;;;;4996346;28;20845;-74
2022/11/21 10:27:24;;;;;;;10.10;6.80;;;8.60;99.90;;;;;;5014576;28;20971;-74
2022/11/21 10:30:03;;;;;;;9.87;7.07;;;8.60;99.90;;;;;;4994086;28;20486;-74
2022/11/21 10:32:49;;;;;;;10.70;6.90;;;8.60;99.90;;;;;;4981106;28;20779;-74
2022/11/21 10:35:24;;;;;;;10.03;7.17;;;8.60;99.90;;;;;;4996855;28;20478;-73
2022/11/21 10:38:02;;;;;;;9.50;5.87;;;8.60;99.90;;;;;;4980868;28;20412;-73
2022/11/21 10:40:30;;;;;;;11.43;6.90;;;8.60;99.90;;;;;;5014181;28;20449;-73
2022/11/21 10:45:51;;;;;;;7.37;5.70;;;8.60;99.90;;;;;;5013641;28;20967;-73
2022/11/21 10:48:17;;;;;;;8.40;6.43;;;8.70;99.90;;;;;;5175048;23;20494;-75
2022/11/21 10:51:01;;;;;;;9.07;6.10;;;8.60;99.90;;;;;;5030302;28;20474;-75
2022/11/21 10:56:20;;;;;;;9.27;6.10;;;8.70;99.90;;;;;;5021504;28;20407;-74
2022/11/21 10:58:51;;;;;;;7.47;5.67;;;8.70;99.90;;;;;;5013798;28;20769;-74
2022/11/21 11:01:21;;;;;;;11.13;5.87;;;8.70;99.90;;;;;;5026446;28;20534;-75
2022/11/21 11:04:05;;;;;;;12.90;6.20;;;8.70;99.90;;;;;;4988557;28;20443;-74
2022/11/21 11:06:34;;;;;;;8.53;5.43;;;8.70;99.90;;;;;;5010865;28;20525;-76
2022/11/21 11:09:00;;;;;;;7.47;5.30;;;8.70;99.90;;;;;;4964946;28;20937;-74
2022/11/21 11:11:31;;;;;;;7.80;5.57;;;8.70;99.90;;;;;;5015660;28;20432;-73
2022/11/21 11:14:03;;;;;;;8.00;5.80;;;8.70;99.90;;;;;;4995518;28;20545;-73
2022/11/21 11:16:35;;;;;;;6.50;5.23;;;8.70;99.90;;;;;;5023514;28;20498;-74
2022/11/21 11:19:12;;;;;;;8.00;5.10;;;8.70;99.90;;;;;;4974218;28;20443;-74
2022/11/21 11:21:45;;;;;;;7.70;5.60;;;8.70;99.90;;;;;;4985341;28;20844;-74
2022/11/21 11:24:11;;;;;;;6.23;5.10;;;8.70;99.90;;;;;;5005565;28;20443;-73
2022/11/21 11:26:46;;;;;;;7.00;5.33;;;8.70;99.90;;;;;;5030136;28;20439;-73
2022/11/21 11:29:26;;;;;;;8.13;4.97;;;8.70;99.90;;;;;;5015281;28;20435;-74
2022/11/21 11:31:54;;;;;;;6.67;4.93;;;8.70;99.90;;;;;;5000251;28;20471;-75
2022/11/21 11:34:26;;;;;;;6.87;5.20;;;8.80;99.90;;;;;;4982938;28;20533;-75
2022/11/21 11:37:12;;;;;;;9.60;5.30;;;8.80;99.90;;;;;;4987520;28;20543;-75
2022/11/21 11:39:59;;;;;;;8.20;4.47;;;8.80;99.90;;;;;;4983763;28;20490;-76
2022/11/21 11:49:10;;;;;;;6.53;4.70;;;8.80;99.90;;;;;;5030975;28;20822;-75
2022/11/21 11:51:58;;;;;;;8.43;4.73;;;8.80;99.90;;;;;;5019478;28;20443;-75
2022/11/21 11:54:41;;;;;;;7.13;4.53;;;8.80;99.90;;;;;;5016539;28;20421;-75
2022/11/21 11:57:18;;;;;;;6.20;4.90;;;8.80;99.90;;;;;;5034652;28;20415;-75
2022/11/21 11:59:56;;;;;;;6.57;3.83;;;8.80;99.90;;;;;;5052477;28;20439;-75
2022/11/21 12:03:02;;;;;;;6.37;4.33;;;8.80;99.90;;;;;;5020650;28;20453;-75
2022/11/21 12:05:31;;;;;;;5.87;3.87;;;8.90;99.90;;;;;;5017679;28;20439;-75
2022/11/21 12:08:04;;;;;;;11.80;4.37;;;8.90;99.90;;;;;;5032985;28;20476;-75
2022/11/21 12:12:05;;;;;;;5.63;3.90;;;8.90;99.90;;;;;;5033115;28;20548;-73
2022/11/21 12:13:28;;;;;;;5.33;3.53;;;8.90;99.90;;;;;;5005386;28;20426;-73
2022/11/21 12:15:59;;;;;;;7.70;4.30;;;8.90;99.90;;;;;;5032383;28;20439;-73
2022/11/21 12:18:54;;;;;;;7.53;4.50;;;8.90;99.90;;;;;;5014569;28;20502;-73
2022/11/21 12:21:23;;;;;;;6.83;4.67;;;8.90;99.90;;;;;;5017726;28;20447;-74
2022/11/21 12:23:57;;;;;;;8.37;3.60;;;8.90;99.90;;;;;;5031749;28;20415;-73
2022/11/21 12:26:34;;;;;;;5.30;3.80;;;8.90;99.90;;;;;;5040761;28;20431;-73
2022/11/21 12:29:21;;;;;;;7.23;4.13;;;8.90;99.90;;;;;;5009382;28;20503;-73
2022/11/21 12:31:59;;;;;;;5.90;3.57;;;8.90;99.90;;;;;;5031590;28;20450;-73
2022/11/21 12:34:47;;;;;;;9.67;4.00;;;9.00;99.90;;;;;;5018542;28;20446;-73
2022/11/21 12:37:17;;;;;;;6.60;3.87;;;9.00;99.90;;;;;;5033607;28;20448;-73
2022/11/21 12:39:52;;;;;;;7.70;3.23;;;9.00;99.90;;;;;;5033564;28;20450;-73
2022/11/21 12:42:51;;;;;;;7.33;3.90;;;9.00;99.90;;;;;;5001280;28;20499;-73
2022/11/21 12:45:31;;;;;;;5.93;3.53;;;9.00;99.90;;;;;;5034934;28;20989;-73
2022/11/21 12:54:37;;;;;;;3.50;3.00;;;9.00;99.90;;;;;;5045983;28;20417;-73
2022/11/21 12:57:10;;;;;;;4.90;3.13;;;9.00;99.90;;;;;;5037890;28;20424;-73
2022/11/21 13:00:14;;;;;;;5.63;3.43;;;9.00;99.90;;;;;;5047434;28;20441;-73
2022/11/21 13:02:52;;;;;;;3.77;2.87;;;9.00;99.90;;;;;;5049347;28;20582;-73
2022/11/21 13:05:28;;;;;;;7.67;3.07;;;9.00;99.90;;;;;;5016790;28;20487;-74
2022/11/21 13:08:06;;;;;;;4.60;2.80;;;9.00;99.90;;;;;;5026727;28;20448;-73
2022/11/21 13:10:33;;;;;;;4.90;3.00;;;9.00;99.90;;;;;;5015752;28;20523;-73
2022/11/21 13:13:13;;;;;;;3.33;2.70;;;9.00;99.90;;;;;;5013461;28;20463;-74
2022/11/21 13:15:56;;;;;;;6.47;3.07;;;9.00;99.90;;;;;;5032686;28;20756;-74
2022/11/21 13:18:31;;;;;;;4.63;3.20;;;9.10;99.90;;;;;;5004944;28;20462;-74
2022/11/21 13:20:57;;;;;;;4.40;3.13;;;9.10;99.90;;;;;;4998336;28;20987;-74
2022/11/21 13:23:35;;;;;;;6.33;3.87;;;9.10;99.90;;;;;;5045755;28;20426;-74
2022/11/21 13:26:33;;;;;;;5.13;3.03;;;9.10;99.90;;;;;;5058904;28;20453;-74
2022/11/21 13:29:14;;;;;;;4.10;3.00;;;9.10;99.90;;;;;;5019740;28;20497;-74